Time;durP1;ratioP1;P1;durP2;ratioP2;P2;SDS_P1;SDS_P2;PMS_P1;PMS_P2;Temp;Humidity;BMP_temperature;BMP_pressure;BME280_temperature;BME280_humidity;BME280_pressure;Samples;Min_cycle;Max_cycle;Signal;HPM_P1;HPM_P2
2021/03/02 00:02:06;;;;;;;18.17;13.07;;;;;;;;;;5017425;28;20455;-84
2021/03/02 00:04:32;;;;;;;18.08;13.27;;;;;;;;;;5032637;28;20489;-84
2021/03/02 00:06:58;;;;;;;19.25;12.80;;;;;;;;;;5012792;28;20407;-84
2021/03/02 00:09:24;;;;;;;19.30;12.68;;;;;;;;;;5030587;28;20811;-84
2021/03/02 00:11:50;;;;;;;17.95;13.20;;;;;;;;;;5033859;28;20398;-84
2021/03/02 00:14:16;;;;;;;19.85;13.50;;;;;;;;;;5033739;28;20425;-84
2021/03/02 00:16:43;;;;;;;20.02;13.75;;;;;;;;;;5014497;28;20395;-84
2021/03/02 00:19:09;;;;;;;20.17;13.02;;;;;;;;;;5016881;28;20446;-84
2021/03/02 00:21:37;;;;;;;18.65;13.52;;;;;;;;;;5032466;28;20401;-84
2021/03/02 00:24:03;;;;;;;16.67;12.98;;;;;;;;;;5016969;28;20433;-83
2021/03/02 00:26:31;;;;;;;20.33;12.82;;;;;;;;;;5013527;28;20424;-84
2021/03/02 00:28:57;;;;;;;18.73;12.32;;;;;;;;;;5025984;28;20409;-84
2021/03/02 00:31:23;;;;;;;16.60;11.63;;;;;;;;;;5031230;28;20486;-84
2021/03/02 00:33:49;;;;;;;17.17;12.50;;;;;;;;;;5015665;28;20426;-83
2021/03/02 00:36:15;;;;;;;17.65;12.93;;;;;;;;;;5014868;28;20957;-84
2021/03/02 00:38:41;;;;;;;19.40;13.03;;;;;;;;;;5016567;28;20466;-83
2021/03/02 00:41:07;;;;;;;17.35;12.65;;;;;;;;;;5012136;28;20482;-84
2021/03/02 00:43:33;;;;;;;16.38;12.13;;;;;;;;;;5013176;28;20551;-84
2021/03/02 00:45:59;;;;;;;20.83;13.35;;;;;;;;;;5030946;28;20975;-83
2021/03/02 00:48:25;;;;;;;18.40;13.00;;;;;;;;;;5016854;28;20500;-84
2021/03/02 00:50:51;;;;;;;19.38;13.27;;;;;;;;;;5032132;28;20405;-84
2021/03/02 00:53:17;;;;;;;18.58;13.93;;;;;;;;;;5034376;28;20419;-84
2021/03/02 00:55:43;;;;;;;18.33;12.98;;;;;;;;;;5023892;28;20956;-84
2021/03/02 00:58:08;;;;;;;19.97;13.50;;;;;;;;;;5012949;28;20477;-84
2021/03/02 01:00:34;;;;;;;20.88;13.90;;;;;;;;;;5026756;28;20528;-84
2021/03/02 01:03:00;;;;;;;19.00;13.02;;;;;;;;;;5024926;28;20466;-84
2021/03/02 01:05:26;;;;;;;18.75;13.45;;;;;;;;;;5013223;28;20415;-84
2021/03/02 01:07:52;;;;;;;20.80;13.70;;;;;;;;;;5031644;28;20463;-84
2021/03/02 01:10:18;;;;;;;22.92;13.82;;;;;;;;;;5032776;28;20405;-84
2021/03/02 01:12:44;;;;;;;20.42;13.55;;;;;;;;;;5014763;28;20407;-84
2021/03/02 01:15:10;;;;;;;20.63;13.60;;;;;;;;;;5019478;28;20411;-84
2021/03/02 01:17:36;;;;;;;22.23;13.75;;;;;;;;;;5029304;28;20926;-83
2021/03/02 01:20:03;;;;;;;19.67;13.88;;;;;;;;;;5047223;28;20409;-83
2021/03/02 01:22:29;;;;;;;19.58;13.80;;;;;;;;;;5041160;28;20404;-83
2021/03/02 01:24:54;;;;;;;20.38;13.60;;;;;;;;;;5031676;28;20482;-84
2021/03/02 01:27:20;;;;;;;23.75;14.75;;;;;;;;;;5037544;28;20391;-84
2021/03/02 01:29:46;;;;;;;18.57;13.43;;;;;;;;;;5038794;28;20492;-84
2021/03/02 01:32:12;;;;;;;19.92;14.05;;;;;;;;;;5017511;28;20433;-84
2021/03/02 01:34:38;;;;;;;22.95;14.60;;;;;;;;;;5037143;28;20405;-84
2021/03/02 01:37:04;;;;;;;24.23;14.02;;;;;;;;;;5044178;28;20397;-84
2021/03/02 01:39:30;;;;;;;20.27;14.47;;;;;;;;;;5032990;28;20458;-84
2021/03/02 01:41:57;;;;;;;17.05;12.75;;;;;;;;;;5049478;28;20408;-84
2021/03/02 01:44:23;;;;;;;17.23;12.70;;;;;;;;;;5027828;28;20415;-84
2021/03/02 01:46:49;;;;;;;18.17;12.30;;;;;;;;;;5034887;28;20419;-84
2021/03/02 01:49:15;;;;;;;17.08;11.90;;;;;;;;;;5035738;28;20427;-84
2021/03/02 01:51:41;;;;;;;17.27;11.30;;;;;;;;;;5035660;28;20423;-84
2021/03/02 01:54:07;;;;;;;15.00;10.75;;;;;;;;;;5033560;28;20494;-84
2021/03/02 01:56:33;;;;;;;15.52;10.52;;;;;;;;;;5018169;28;20457;-84
2021/03/02 01:58:59;;;;;;;16.05;11.38;;;;;;;;;;5030861;28;20413;-84
2021/03/02 02:01:25;;;;;;;21.37;11.17;;;;;;;;;;5016789;28;20566;-84
2021/03/02 02:04:00;;;;;;;16.75;10.65;;;;;;;;;;5016317;28;20901;-84
2021/03/02 02:06:27;;;;;;;15.40;11.15;;;;;;;;;;5060294;28;20404;-84
2021/03/02 02:09:02;;;;;;;17.80;10.77;;;;;;;;;;5039183;28;20429;-84
2021/03/02 02:11:34;;;;;;;15.88;10.95;;;;;;;;;;5053343;28;20579;-84
2021/03/02 02:14:23;;;;;;;15.95;11.15;;;;;;;;;;5020815;28;20920;-84
2021/03/02 02:16:50;;;;;;;17.35;11.93;;;;;;;;;;5043673;28;20476;-84
2021/03/02 02:19:39;;;;;;;15.60;11.27;;;;;;;;;;5017247;28;20468;-84
2021/03/02 02:22:08;;;;;;;15.10;11.20;;;;;;;;;;5007688;28;20741;-84
2021/03/02 02:24:43;;;;;;;17.55;11.80;;;;;;;;;;5028067;28;20767;-84
2021/03/02 02:27:09;;;;;;;19.67;14.03;;;;;;;;;;5046717;28;20941;-84
2021/03/02 02:29:36;;;;;;;20.75;12.85;;;;;;;;;;5024379;28;20551;-84
2021/03/02 02:32:03;;;;;;;18.23;12.52;;;;;;;;;;5045433;28;20441;-85
2021/03/02 02:34:29;;;;;;;18.65;13.27;;;;;;;;;;5025385;28;20448;-84
2021/03/02 02:36:55;;;;;;;18.42;12.23;;;;;;;;;;5033009;28;20393;-84
2021/03/02 02:39:21;;;;;;;19.17;12.32;;;;;;;;;;5031431;28;20884;-84
2021/03/02 02:41:47;;;;;;;19.33;12.10;;;;;;;;;;5032368;28;20491;-84
2021/03/02 02:44:13;;;;;;;19.73;13.60;;;;;;;;;;5037384;28;20891;-84
2021/03/02 02:46:40;;;;;;;18.60;12.55;;;;;;;;;;5049516;28;20875;-83
2021/03/02 02:49:06;;;;;;;16.90;11.50;;;;;;;;;;5031731;28;21072;-84
2021/03/02 02:51:32;;;;;;;20.00;12.55;;;;;;;;;;5067134;28;20420;-84
2021/03/02 02:53:58;;;;;;;19.00;12.75;;;;;;;;;;5016075;28;20430;-84
2021/03/02 02:56:23;;;;;;;16.90;11.80;;;;;;;;;;5038927;28;20400;-84
2021/03/02 02:58:57;;;;;;;19.90;12.35;;;;;;;;;;5021225;28;20496;-84
2021/03/02 03:01:23;;;;;;;20.50;13.43;;;;;;;;;;5012736;28;20399;-84
2021/03/02 03:03:49;;;;;;;17.33;11.27;;;;;;;;;;5036399;28;20392;-84
2021/03/02 03:06:17;;;;;;;18.83;12.55;;;;;;;;;;5041694;28;20514;-84
2021/03/02 03:08:43;;;;;;;16.65;11.38;;;;;;;;;;5037739;28;20403;-84
2021/03/02 03:11:09;;;;;;;18.20;11.75;;;;;;;;;;5033458;28;20412;-84
2021/03/02 03:13:36;;;;;;;23.42;12.25;;;;;;;;;;5047938;28;20423;-84
2021/03/02 03:16:02;;;;;;;20.33;13.05;;;;;;;;;;5048376;28;20403;-84
2021/03/02 03:18:32;;;;;;;18.42;11.40;;;;;;;;;;5032946;28;20422;-84
2021/03/02 03:20:59;;;;;;;18.75;11.30;;;;;;;;;;5017465;28;20391;-84
2021/03/02 03:23:25;;;;;;;17.52;12.00;;;;;;;;;;5035855;28;20410;-84
2021/03/02 03:25:51;;;;;;;16.67;11.73;;;;;;;;;;5029114;28;20450;-84
2021/03/02 03:28:17;;;;;;;18.00;10.93;;;;;;;;;;5023456;28;20429;-84
2021/03/02 03:30:43;;;;;;;16.45;11.50;;;;;;;;;;5018121;28;20418;-84
2021/03/02 03:33:10;;;;;;;15.38;10.65;;;;;;;;;;5051516;28;20896;-84
2021/03/02 03:35:36;;;;;;;18.13;12.45;;;;;;;;;;5024031;28;20422;-84
2021/03/02 03:38:02;;;;;;;17.63;11.40;;;;;;;;;;5014266;28;20782;-84
2021/03/02 03:40:28;;;;;;;19.02;12.30;;;;;;;;;;5033469;28;20405;-84
2021/03/02 03:42:53;;;;;;;18.50;11.18;;;;;;;;;;5033530;28;20408;-85
2021/03/02 03:45:19;;;;;;;19.40;11.77;;;;;;;;;;5027313;28;20409;-84
2021/03/02 03:47:45;;;;;;;16.60;11.00;;;;;;;;;;5016877;28;20747;-84
2021/03/02 03:50:12;;;;;;;18.45;11.68;;;;;;;;;;5019680;28;20434;-84
2021/03/02 03:52:39;;;;;;;20.35;12.45;;;;;;;;;;5053560;28;20422;-84
2021/03/02 03:55:06;;;;;;;18.10;11.73;;;;;;;;;;5037261;28;20937;-84
2021/03/02 03:57:32;;;;;;;18.42;13.30;;;;;;;;;;5035304;28;20811;-84
2021/03/02 03:59:58;;;;;;;18.88;12.65;;;;;;;;;;5016902;28;20431;-84
2021/03/02 04:02:24;;;;;;;19.05;13.02;;;;;;;;;;5043615;28;20393;-84
2021/03/02 04:04:50;;;;;;;18.65;11.93;;;;;;;;;;5043401;28;20428;-84
2021/03/02 04:07:16;;;;;;;21.35;13.05;;;;;;;;;;5014019;28;20429;-84
2021/03/02 04:09:42;;;;;;;48.92;23.70;;;;;;;;;;5028428;28;20454;-84
2021/03/02 04:12:11;;;;;;;125.28;53.17;;;;;;;;;;5023252;28;20397;-84
2021/03/02 04:14:37;;;;;;;109.93;48.05;;;;;;;;;;5013436;28;20407;-84
2021/03/02 04:17:03;;;;;;;61.95;30.05;;;;;;;;;;5050426;28;20747;-84
2021/03/02 04:19:29;;;;;;;52.83;28.87;;;;;;;;;;5012283;28;20419;-85
2021/03/02 04:21:55;;;;;;;46.25;27.83;;;;;;;;;;5032499;28;20543;-84
2021/03/02 04:24:21;;;;;;;38.03;24.07;;;;;;;;;;5042062;28;20399;-84
2021/03/02 04:26:47;;;;;;;39.88;24.27;;;;;;;;;;5052907;28;20399;-84
2021/03/02 04:29:13;;;;;;;45.08;24.92;;;;;;;;;;5034329;28;20875;-84
2021/03/02 04:31:39;;;;;;;41.00;22.27;;;;;;;;;;5029600;28;20497;-84
2021/03/02 04:34:05;;;;;;;28.75;19.25;;;;;;;;;;5045063;28;20459;-84
2021/03/02 04:36:31;;;;;;;23.65;15.15;;;;;;;;;;5019097;28;20418;-85
2021/03/02 04:38:57;;;;;;;22.60;14.63;;;;;;;;;;5027285;28;20419;-84
2021/03/02 04:41:23;;;;;;;19.50;12.88;;;;;;;;;;5029059;28;20389;-84
2021/03/02 04:43:49;;;;;;;20.67;13.40;;;;;;;;;;5033055;28;20394;-84
2021/03/02 04:46:15;;;;;;;18.67;12.57;;;;;;;;;;5012415;28;20901;-84
2021/03/02 04:48:41;;;;;;;16.80;11.60;;;;;;;;;;5036601;28;20400;-84
2021/03/02 04:51:06;;;;;;;19.25;12.73;;;;;;;;;;5022591;28;20486;-85
2021/03/02 04:53:33;;;;;;;18.97;12.73;;;;;;;;;;5013529;28;20877;-84
2021/03/02 04:55:59;;;;;;;17.85;12.25;;;;;;;;;;5016476;28;20405;-84
2021/03/02 04:58:25;;;;;;;18.17;12.45;;;;;;;;;;5017566;28;20406;-84
2021/03/02 05:00:51;;;;;;;16.60;10.87;;;;;;;;;;5014949;28;20477;-83
2021/03/02 05:03:17;;;;;;;22.60;12.50;;;;;;;;;;5032484;28;20420;-83
2021/03/02 05:05:43;;;;;;;14.95;10.98;;;;;;;;;;5036693;28;20497;-84
2021/03/02 05:08:09;;;;;;;17.07;11.53;;;;;;;;;;5015973;28;20470;-84
2021/03/02 05:10:35;;;;;;;20.25;12.23;;;;;;;;;;5034583;28;20409;-84
2021/03/02 05:13:01;;;;;;;16.58;12.25;;;;;;;;;;5032692;28;20424;-84
2021/03/02 05:15:27;;;;;;;17.05;12.40;;;;;;;;;;5032050;28;20476;-84
2021/03/02 05:17:53;;;;;;;18.77;13.18;;;;;;;;;;5048924;28;20394;-84
2021/03/02 05:20:19;;;;;;;21.80;12.75;;;;;;;;;;5030889;28;20495;-84
2021/03/02 05:22:45;;;;;;;23.20;12.15;;;;;;;;;;5018995;28;20541;-84
2021/03/02 05:25:11;;;;;;;19.55;12.57;;;;;;;;;;5024694;28;20443;-84
2021/03/02 05:27:37;;;;;;;21.07;13.17;;;;;;;;;;5049490;28;20496;-83
2021/03/02 05:30:03;;;;;;;19.85;12.80;;;;;;;;;;5018681;28;20533;-84
2021/03/02 05:32:29;;;;;;;20.40;13.55;;;;;;;;;;5019942;28;20407;-83
2021/03/02 05:34:55;;;;;;;23.65;13.23;;;;;;;;;;5044441;28;20397;-84
2021/03/02 05:37:21;;;;;;;23.73;14.75;;;;;;;;;;5035449;28;20400;-84
2021/03/02 05:39:47;;;;;;;21.23;13.52;;;;;;;;;;5042976;28;20408;-84
2021/03/02 05:42:13;;;;;;;19.73;13.55;;;;;;;;;;5028225;28;20406;-84
2021/03/02 05:44:54;;;;;;;22.42;14.07;;;;;;;;;;5036908;28;20405;-84
2021/03/02 05:47:19;;;;;;;25.17;13.15;;;;;;;;;;5037164;28;20397;-84
2021/03/02 05:49:46;;;;;;;53.87;31.53;;;;;;;;;;5031111;28;20467;-84
2021/03/02 05:52:12;;;;;;;42.40;25.83;;;;;;;;;;5035472;28;20440;-84
2021/03/02 05:54:39;;;;;;;33.67;21.50;;;;;;;;;;5017851;28;20517;-84
2021/03/02 05:57:07;;;;;;;27.13;16.52;;;;;;;;;;5029104;28;20735;-83
2021/03/02 05:59:34;;;;;;;24.73;17.00;;;;;;;;;;5022645;28;20407;-84
2021/03/02 06:02:00;;;;;;;22.90;16.75;;;;;;;;;;5036356;28;20777;-84
2021/03/02 06:04:26;;;;;;;33.20;21.73;;;;;;;;;;5035587;28;20402;-83
2021/03/02 06:07:01;;;;;;;26.45;20.60;;;;;;;;;;5022751;28;20410;-84
2021/03/02 06:09:28;;;;;;;25.85;17.90;;;;;;;;;;5015913;28;21683;-84
2021/03/02 06:12:12;;;;;;;31.10;16.95;;;;;;;;;;5034600;28;20408;-84
2021/03/02 06:14:38;;;;;;;36.10;22.88;;;;;;;;;;5033409;28;20413;-84
2021/03/02 06:17:04;;;;;;;57.60;31.77;;;;;;;;;;5023177;28;20397;-84
2021/03/02 06:19:40;;;;;;;42.03;23.23;;;;;;;;;;5046105;28;20895;-83
2021/03/02 06:22:06;;;;;;;32.85;19.70;;;;;;;;;;5023312;28;20486;-84
2021/03/02 06:24:36;;;;;;;29.27;19.40;;;;;;;;;;5050315;28;20397;-84
2021/03/02 06:27:08;;;;;;;30.17;18.27;;;;;;;;;;5032404;28;20793;-84
2021/03/02 06:29:34;;;;;;;25.50;17.38;;;;;;;;;;5026381;28;20429;-84
2021/03/02 06:32:00;;;;;;;28.45;17.63;;;;;;;;;;5033174;28;20444;-84
2021/03/02 06:34:26;;;;;;;26.67;16.93;;;;;;;;;;5019144;28;20422;-83
2021/03/02 06:36:54;;;;;;;32.28;18.58;;;;;;;;;;5026489;28;20450;-83
2021/03/02 06:39:31;;;;;;;33.45;16.98;;;;;;;;;;5047041;28;20415;-83
2021/03/02 06:42:23;;;;;;;26.90;17.48;;;;;;;;;;5024152;28;20409;-83
2021/03/02 06:44:52;;;;;;;28.10;17.40;;;;;;;;;;5015969;28;20968;-83
2021/03/02 06:47:31;;;;;;;30.65;18.48;;;;;;;;;;5051986;28;20491;-83
2021/03/02 06:49:57;;;;;;;27.40;17.60;;;;;;;;;;5052159;28;20393;-84
2021/03/02 06:52:23;;;;;;;27.60;16.90;;;;;;;;;;5006638;28;20827;-84
2021/03/02 06:54:58;;;;;;;25.20;16.10;;;;;;;;;;4997083;28;20418;-84
2021/03/02 06:58:04;;;;;;;25.92;15.88;;;;;;;;;;4996631;28;20511;-84
2021/03/02 07:00:33;;;;;;;24.47;16.23;;;;;;;;;;5029265;28;20797;-83
2021/03/02 07:02:59;;;;;;;27.98;16.92;;;;;;;;;;4998550;28;20906;-83
2021/03/02 07:05:25;;;;;;;31.08;18.95;;;;;;;;;;4997795;28;20422;-84
2021/03/02 07:07:57;;;;;;;30.52;19.90;;;;;;;;;;4999179;28;20913;-83
2021/03/02 07:13:28;;;;;;;21.73;14.87;;;;;;;;;;5031879;28;20402;-84
2021/03/02 07:15:54;;;;;;;21.77;14.15;;;;;;;;;;5014684;28;20486;-84
2021/03/02 07:18:21;;;;;;;20.15;15.13;;;;;;;;;;4996814;28;20504;-84
2021/03/02 07:24:09;;;;;;;19.90;14.52;;;;;;;;;;5031647;28;20960;-84
2021/03/02 07:26:35;;;;;;;21.02;15.57;;;;;;;;;;5002577;28;20395;-83
2021/03/02 07:29:10;;;;;;;23.65;16.92;;;;;;;;;;5014746;28;20415;-83
2021/03/02 07:31:42;;;;;;;26.38;17.08;;;;;;;;;;4999967;28;20395;-83
2021/03/02 07:34:09;;;;;;;23.15;15.50;;;;;;;;;;4996678;28;20423;-85
2021/03/02 07:37:12;;;;;;;20.35;14.80;;;;;;;;;;4998295;28;20403;-85
2021/03/02 07:39:43;;;;;;;18.85;14.55;;;;;;;;;;5013003;28;20403;-85
2021/03/02 07:42:22;;;;;;;22.53;16.80;;;;;;;;;;5003780;28;20467;-83
2021/03/02 07:48:03;;;;;;;22.80;16.13;;;;;;;;;;4975851;28;20408;-83
2021/03/02 07:57:16;;;;;;;20.75;14.63;;;;;;;;;;5049850;28;20520;-84
2021/03/02 08:00:05;;;;;;;20.30;13.35;;;;;;;;;;5030809;28;20761;-83
2021/03/02 08:02:36;;;;;;;19.90;13.55;;;;;;;;;;5051179;28;20517;-83
2021/03/02 08:05:21;;;;;;;23.47;13.37;;;;;;;;;;5032171;28;20433;-83
2021/03/02 08:07:47;;;;;;;20.48;13.95;;;;;;;;;;5058448;28;20432;-83
2021/03/02 08:10:33;;;;;;;20.48;14.27;;;;;;;;;;5039570;28;20472;-84
2021/03/02 08:13:02;;;;;;;22.85;13.25;;;;;;;;;;5034895;28;20425;-83
2021/03/02 08:15:37;;;;;;;19.17;12.60;;;;;;;;;;5033397;28;20777;-84
2021/03/02 08:18:42;;;;;;;16.40;11.80;;;;;;;;;;5015876;28;20410;-84
2021/03/02 08:21:10;;;;;;;14.98;11.50;;;;;;;;;;4953250;28;20396;-84
2021/03/02 08:23:52;;;;;;;14.07;11.23;;;;;;;;;;4959169;28;20404;-84
2021/03/02 08:26:27;;;;;;;19.75;12.23;;;;;;;;;;4995940;28;20409;-83
2021/03/02 08:29:13;;;;;;;16.20;13.00;;;;;;;;;;5015484;28;21050;-83
2021/03/02 08:31:40;;;;;;;20.63;13.53;;;;;;;;;;5029244;28;20844;-83
2021/03/02 08:34:06;;;;;;;25.50;16.10;;;;;;;;;;5023557;28;20424;-84
2021/03/02 08:36:33;;;;;;;21.65;15.95;;;;;;;;;;5016938;28;20467;-84
2021/03/02 08:38:59;;;;;;;18.25;12.70;;;;;;;;;;5039580;28;20402;-84
2021/03/02 08:41:35;;;;;;;20.90;13.00;;;;;;;;;;5023361;28;20400;-84
2021/03/02 08:44:01;;;;;;;18.98;12.65;;;;;;;;;;5034895;28;20406;-87
2021/03/02 08:46:29;;;;;;;17.02;11.82;;;;;;;;;;5012745;28;20411;-86
2021/03/02 08:48:55;;;;;;;20.27;12.20;;;;;;;;;;5008360;28;20424;-87
2021/03/02 08:51:24;;;;;;;15.48;12.07;;;;;;;;;;5038864;28;20460;-85
2021/03/02 08:53:51;;;;;;;17.30;12.20;;;;;;;;;;5045717;28;20421;-84
2021/03/02 08:56:21;;;;;;;16.50;12.00;;;;;;;;;;5041205;28;20427;-84
2021/03/02 08:58:53;;;;;;;15.63;11.88;;;;;;;;;;5030895;28;20508;-84
2021/03/02 09:01:54;;;;;;;15.07;10.82;;;;;;;;;;5039404;28;20397;-84
2021/03/02 09:04:22;;;;;;;15.05;12.13;;;;;;;;;;5029570;28;20413;-83
2021/03/02 09:07:14;;;;;;;13.55;10.90;;;;;;;;;;5016371;28;20842;-84
2021/03/02 09:09:40;;;;;;;13.70;11.52;;;;;;;;;;5049511;28;20408;-85
2021/03/02 09:12:06;;;;;;;13.23;10.48;;;;;;;;;;5022107;28;20398;-85
2021/03/02 09:14:36;;;;;;;12.93;11.00;;;;;;;;;;5036581;28;20415;-84
2021/03/02 09:17:02;;;;;;;13.47;10.73;;;;;;;;;;5030740;28;20895;-84
2021/03/02 09:19:41;;;;;;;14.15;11.38;;;;;;;;;;5045839;28;20490;-82
2021/03/02 09:22:07;;;;;;;18.05;12.50;;;;;;;;;;5036610;28;20620;-85
2021/03/02 09:24:37;;;;;;;15.50;11.43;;;;;;;;;;5044809;28;20898;-87
2021/03/02 09:27:04;;;;;;;15.63;10.32;;;;;;;;;;5041567;28;20448;-84
2021/03/02 09:29:33;;;;;;;14.93;11.02;;;;;;;;;;5025260;28;20405;-88
2021/03/02 09:32:27;;;;;;;13.50;10.68;;;;;;;;;;5038208;28;20404;-85
2021/03/02 09:34:55;;;;;;;11.27;9.98;;;;;;;;;;5039455;28;20423;-85
2021/03/02 09:37:21;;;;;;;11.63;10.00;;;;;;;;;;5037421;28;20447;-85
2021/03/02 09:39:56;;;;;;;12.73;10.32;;;;;;;;;;5043541;28;20417;-85
2021/03/02 09:42:23;;;;;;;12.37;10.07;;;;;;;;;;5032467;28;20440;-84
2021/03/02 09:45:29;;;;;;;12.13;9.50;;;;;;;;;;5050570;28;20403;-85
2021/03/02 09:47:58;;;;;;;11.35;10.30;;;;;;;;;;5036599;28;20437;-85
2021/03/02 09:50:25;;;;;;;13.27;11.15;;;;;;;;;;5045538;28;20442;-85
2021/03/02 09:52:55;;;;;;;11.50;10.40;;;;;;;;;;5024829;28;20763;-86
2021/03/02 09:55:21;;;;;;;13.23;11.18;;;;;;;;;;5018610;28;20415;-83
2021/03/02 09:58:23;;;;;;;11.63;10.43;;;;;;;;;;5038530;28;20405;-83
2021/03/02 10:01:03;;;;;;;11.77;10.43;;;;;;;;;;5051109;28;20440;-83
2021/03/02 10:03:36;;;;;;;10.77;9.82;;;;;;;;;;5016847;28;20422;-83
2021/03/02 10:12:16;;;;;;;11.43;10.27;;;;;;;;;;4984664;28;20402;-85
2021/03/02 10:14:43;;;;;;;12.32;9.68;;;;;;;;;;5021154;28;20404;-84
2021/03/02 10:17:09;;;;;;;11.30;9.73;;;;;;;;;;5035630;28;20397;-83
2021/03/02 10:22:22;;;;;;;11.10;10.18;;;;;;;;;;5022021;28;20422;-83
2021/03/02 10:24:52;;;;;;;13.23;10.95;;;;;;;;;;5005890;28;20921;-85
2021/03/02 10:27:19;;;;;;;11.40;10.20;;;;;;;;;;5042075;28;20476;-84
2021/03/02 10:29:45;;;;;;;12.05;10.95;;;;;;;;;;5035331;28;20398;-84
2021/03/02 10:32:14;;;;;;;12.02;10.50;;;;;;;;;;5037360;28;20406;-84
2021/03/02 10:34:41;;;;;;;11.73;10.63;;;;;;;;;;5026958;28;20467;-85
2021/03/02 10:37:42;;;;;;;13.38;11.70;;;;;;;;;;5020140;28;20393;-84
2021/03/02 10:40:08;;;;;;;13.43;12.13;;;;;;;;;;5049312;28;21248;-83
2021/03/02 10:42:35;;;;;;;14.55;12.73;;;;;;;;;;5012063;28;20398;-83
2021/03/02 10:45:02;;;;;;;17.87;13.57;;;;;;;;;;5022867;28;20406;-84
2021/03/02 10:47:28;;;;;;;16.13;12.38;;;;;;;;;;5049054;28;20401;-85
2021/03/02 10:49:54;;;;;;;17.80;12.47;;;;;;;;;;5035789;28;20416;-85
2021/03/02 10:52:22;;;;;;;14.93;12.27;;;;;;;;;;5013521;28;20579;-85
2021/03/02 10:54:48;;;;;;;13.45;11.90;;;;;;;;;;5018428;28;20448;-83
2021/03/02 10:57:14;;;;;;;14.32;12.05;;;;;;;;;;5015143;28;20402;-83
2021/03/02 10:59:40;;;;;;;14.27;12.77;;;;;;;;;;5021897;28;20405;-83
2021/03/02 11:02:06;;;;;;;13.77;12.47;;;;;;;;;;5029897;28;20471;-84
2021/03/02 11:04:32;;;;;;;16.15;13.20;;;;;;;;;;5028912;28;20429;-84
2021/03/02 11:06:58;;;;;;;14.90;12.30;;;;;;;;;;5014471;28;20410;-83
2021/03/02 11:09:25;;;;;;;13.45;12.15;;;;;;;;;;5032953;28;20401;-83
2021/03/02 11:11:51;;;;;;;17.75;13.70;;;;;;;;;;5048055;28;20900;-83
2021/03/02 11:14:17;;;;;;;14.40;12.95;;;;;;;;;;5026250;28;20496;-83
2021/03/02 11:16:43;;;;;;;17.70;13.73;;;;;;;;;;5022798;28;20821;-83
2021/03/02 11:19:09;;;;;;;14.87;13.37;;;;;;;;;;5020361;28;20924;-83
2021/03/02 11:21:35;;;;;;;15.10;12.90;;;;;;;;;;5017484;28;20409;-82
2021/03/02 11:24:01;;;;;;;17.20;14.00;;;;;;;;;;5049555;28;20434;-83
2021/03/02 11:26:28;;;;;;;18.67;13.90;;;;;;;;;;5033750;28;20506;-84
2021/03/02 11:28:53;;;;;;;18.00;15.18;;;;;;;;;;5017483;28;20486;-82
2021/03/02 11:31:19;;;;;;;17.00;14.57;;;;;;;;;;5034447;28;20421;-83
2021/03/02 11:33:45;;;;;;;17.17;14.27;;;;;;;;;;5018613;28;20409;-83
2021/03/02 11:36:11;;;;;;;21.02;15.23;;;;;;;;;;5052406;28;20400;-83
2021/03/02 11:38:37;;;;;;;17.40;13.43;;;;;;;;;;5026326;28;20417;-83
2021/03/02 11:41:06;;;;;;;19.65;14.80;;;;;;;;;;5016658;28;20401;-82
2021/03/02 11:43:32;;;;;;;18.92;13.93;;;;;;;;;;5033753;28;20537;-83
2021/03/02 11:45:58;;;;;;;18.33;15.02;;;;;;;;;;5034236;28;20879;-85
2021/03/02 11:48:24;;;;;;;18.85;14.25;;;;;;;;;;5015857;28;20410;-86
2021/03/02 11:50:50;;;;;;;23.70;14.38;;;;;;;;;;5016696;28;20417;-83
2021/03/02 11:54:00;;;;;;;;;;;;;;;;;;;;;
2021/03/02 11:56:58;;;;;;;17.37;14.13;;;;;;;;;;5053744;28;20405;-85
2021/03/02 11:59:26;;;;;;;17.40;13.43;;;;;;;;;;5047610;28;20849;-83
2021/03/02 12:01:55;;;;;;;17.52;12.85;;;;;;;;;;5034902;28;20401;-84
2021/03/02 12:04:21;;;;;;;17.90;13.20;;;;;;;;;;5017164;28;20432;-83
2021/03/02 12:06:47;;;;;;;20.73;14.15;;;;;;;;;;5033814;28;20619;-84
2021/03/02 12:09:13;;;;;;;16.75;13.10;;;;;;;;;;5032066;28;20772;-84
2021/03/02 12:11:39;;;;;;;17.00;12.75;;;;;;;;;;5032740;28;20910;-83
2021/03/02 12:14:05;;;;;;;19.75;14.25;;;;;;;;;;5020858;28;20988;-86
2021/03/02 12:16:31;;;;;;;18.48;14.60;;;;;;;;;;5027584;28;20412;-83
2021/03/02 12:18:57;;;;;;;16.90;13.75;;;;;;;;;;5017295;28;20398;-84
2021/03/02 12:21:22;;;;;;;18.50;13.25;;;;;;;;;;5027403;28;20408;-83
2021/03/02 12:23:48;;;;;;;18.08;13.15;;;;;;;;;;5031812;28;20424;-84
2021/03/02 12:26:14;;;;;;;18.13;14.23;;;;;;;;;;5017719;28;20484;-83
2021/03/02 12:28:43;;;;;;;19.38;13.82;;;;;;;;;;5017474;28;20401;-83
2021/03/02 12:31:11;;;;;;;16.02;12.85;;;;;;;;;;5012031;28;20397;-83
2021/03/02 12:33:37;;;;;;;17.17;12.90;;;;;;;;;;5028022;28;20413;-83
2021/03/02 12:36:04;;;;;;;18.45;14.05;;;;;;;;;;5033739;28;20405;-89
2021/03/02 12:38:30;;;;;;;18.83;13.23;;;;;;;;;;5016134;28;20413;-83
2021/03/02 12:44:02;;;;;;;19.27;13.30;;;;;;;;;;5045739;28;20462;-84
2021/03/02 12:46:35;;;;;;;20.27;14.32;;;;;;;;;;5012608;28;20418;-83
2021/03/02 12:49:01;;;;;;;20.52;13.27;;;;;;;;;;5017052;28;20795;-84
2021/03/02 12:51:27;;;;;;;18.77;13.90;;;;;;;;;;5014078;28;20824;-83
2021/03/02 12:53:53;;;;;;;21.08;13.98;;;;;;;;;;5017401;28;20483;-83
2021/03/02 12:56:19;;;;;;;17.00;13.40;;;;;;;;;;5033056;28;20768;-84
2021/03/02 12:58:45;;;;;;;18.30;14.15;;;;;;;;;;5017053;28;20394;-84
2021/03/02 13:01:11;;;;;;;18.20;14.38;;;;;;;;;;5019342;28;20392;-84
2021/03/02 13:03:37;;;;;;;20.17;14.25;;;;;;;;;;5019085;28;20948;-84
2021/03/02 13:06:04;;;;;;;16.52;13.23;;;;;;;;;;5034031;28;20417;-83
2021/03/02 13:08:30;;;;;;;18.52;14.77;;;;;;;;;;5010176;28;20875;-83
2021/03/02 13:10:59;;;;;;;20.23;15.02;;;;;;;;;;5021623;28;20529;-83
2021/03/02 13:13:26;;;;;;;20.25;15.23;;;;;;;;;;5015824;28;20405;-84
2021/03/02 13:15:52;;;;;;;20.85;14.52;;;;;;;;;;5029337;28;20760;-83
2021/03/02 13:18:18;;;;;;;21.17;14.32;;;;;;;;;;5016477;28;20486;-84
2021/03/02 13:20:44;;;;;;;20.65;14.85;;;;;;;;;;5011063;28;20418;-83
2021/03/02 13:23:10;;;;;;;23.23;15.30;;;;;;;;;;5018268;28;20778;-85
2021/03/02 13:25:38;;;;;;;22.13;14.57;;;;;;;;;;5029454;28;20385;-86
2021/03/02 13:28:05;;;;;;;19.50;14.20;;;;;;;;;;5033254;28;20400;-84
2021/03/02 13:30:31;;;;;;;21.80;15.20;;;;;;;;;;5032906;28;20432;-84
2021/03/02 13:33:00;;;;;;;20.90;14.63;;;;;;;;;;5022492;28;20748;-85
2021/03/02 13:35:26;;;;;;;23.73;14.60;;;;;;;;;;5045953;28;20399;-84
2021/03/02 13:37:52;;;;;;;20.00;14.68;;;;;;;;;;5013441;28;20392;-83
2021/03/02 13:40:19;;;;;;;20.08;15.18;;;;;;;;;;5014629;28;20500;-83
2021/03/02 13:42:49;;;;;;;20.10;14.32;;;;;;;;;;5020484;28;20817;-83
2021/03/02 13:45:15;;;;;;;23.20;14.85;;;;;;;;;;5007436;28;20405;-83
2021/03/02 13:47:41;;;;;;;19.23;14.43;;;;;;;;;;5032720;28;21553;-83
2021/03/02 13:50:07;;;;;;;22.35;15.35;;;;;;;;;;5023097;28;20421;-83
2021/03/02 13:52:36;;;;;;;24.20;15.10;;;;;;;;;;5010851;28;20403;-84
2021/03/02 13:55:03;;;;;;;21.77;14.82;;;;;;;;;;5009441;28;20432;-83
2021/03/02 13:57:29;;;;;;;22.33;15.60;;;;;;;;;;4996158;28;20479;-84
2021/03/02 13:59:58;;;;;;;24.10;14.98;;;;;;;;;;4990982;28;20420;-84
2021/03/02 14:02:25;;;;;;;24.30;13.85;;;;;;;;;;5009790;28;20410;-83
2021/03/02 14:04:51;;;;;;;17.15;13.82;;;;;;;;;;5014157;28;20753;-83
2021/03/02 14:07:19;;;;;;;22.65;15.63;;;;;;;;;;5005574;28;20399;-84
2021/03/02 14:09:46;;;;;;;26.73;15.00;;;;;;;;;;4990051;28;20447;-84
2021/03/02 14:12:12;;;;;;;21.45;15.20;;;;;;;;;;5009426;28;20403;-84
2021/03/02 14:14:44;;;;;;;27.07;14.50;;;;;;;;;;5008466;28;20408;-84
2021/03/02 14:17:10;;;;;;;21.80;14.15;;;;;;;;;;5005249;28;20411;-84
2021/03/02 14:19:36;;;;;;;22.07;14.27;;;;;;;;;;5012534;28;20436;-84
2021/03/02 14:22:02;;;;;;;23.50;14.38;;;;;;;;;;4999360;28;20405;-84
2021/03/02 14:24:28;;;;;;;22.23;14.88;;;;;;;;;;5008025;28;20415;-85
2021/03/02 14:26:54;;;;;;;25.25;14.38;;;;;;;;;;5003644;28;20779;-85
2021/03/02 14:29:22;;;;;;;23.42;14.73;;;;;;;;;;4996443;28;20459;-84
2021/03/02 14:31:48;;;;;;;22.43;15.87;;;;;;;;;;5013953;28;20446;-85
2021/03/02 14:34:14;;;;;;;21.38;15.23;;;;;;;;;;5015316;28;20431;-85
2021/03/02 14:36:46;;;;;;;22.13;12.82;;;;;;;;;;5011331;28;20438;-86
2021/03/02 14:39:12;;;;;;;23.42;14.80;;;;;;;;;;5010067;28;20399;-85
2021/03/02 14:41:41;;;;;;;20.35;14.00;;;;;;;;;;5033538;28;20407;-86
2021/03/02 14:44:08;;;;;;;20.98;14.60;;;;;;;;;;5008853;28;20461;-85
2021/03/02 14:46:40;;;;;;;22.30;13.20;;;;;;;;;;4989232;28;20407;-86
2021/03/02 14:49:09;;;;;;;16.83;12.40;;;;;;;;;;4992177;28;20407;-86
2021/03/02 14:51:35;;;;;;;26.48;14.55;;;;;;;;;;5002084;28;20453;-86
2021/03/02 14:54:01;;;;;;;25.75;15.25;;;;;;;;;;5006228;28;20443;-85
2021/03/02 14:56:28;;;;;;;25.85;14.65;;;;;;;;;;5016295;28;20405;-86